Time;durP1;ratioP1;P1;durP2;ratioP2;P2;SDS_P1;SDS_P2;PMS_P1;PMS_P2;Temp;Humidity;BMP_temperature;BMP_pressure;BME280_temperature;BME280_humidity;BME280_pressure;Samples;Min_cycle;Max_cycle;Signal;HPM_P1;HPM_P2
2023/08/28 00:03:41;;;;;;;7.60;7.00;;;;;;;;;;10143960;28;20097;-88
2023/08/28 00:08:38;;;;;;;8.00;7.30;;;;;;;;;;10142206;28;20053;-83
2023/08/28 00:13:36;;;;;;;8.10;7.30;;;;;;;;;;10139415;28;20053;-81
2023/08/28 00:18:32;;;;;;;7.75;7.15;;;;;;;;;;10132099;28;20475;-82
2023/08/28 00:23:32;;;;;;;7.18;6.53;;;;;;;;;;10139371;28;20051;-83
2023/08/28 00:28:31;;;;;;;7.85;7.15;;;;;;;;;;10136359;28;20059;-82
2023/08/28 00:33:30;;;;;;;7.78;7.07;;;;;;;;;;10138423;28;20050;-84
2023/08/28 00:38:28;;;;;;;9.70;7.57;;;;;;;;;;10140123;28;20134;-83
2023/08/28 00:43:25;;;;;;;8.32;7.30;;;;;;;;;;10146924;28;20145;-83
2023/08/28 00:48:24;;;;;;;7.57;6.88;;;;;;;;;;10131008;28;20053;-81
2023/08/28 00:53:21;;;;;;;9.00;8.10;;;;;;;;;;10139319;28;20055;-81
2023/08/28 00:58:17;;;;;;;8.25;7.45;;;;;;;;;;10143181;28;20058;-85
2023/08/28 01:08:47;;;;;;;8.13;7.17;;;;;;;;;;11180206;22;20057;-70
2023/08/28 01:13:47;;;;;;;7.80;7.03;;;;;;;;;;10225302;28;20041;-70
2023/08/28 01:18:43;;;;;;;8.15;7.32;;;;;;;;;;10216548;28;20049;-70
2023/08/28 01:23:43;;;;;;;8.07;6.80;;;;;;;;;;10215065;28;20559;-70
2023/08/28 01:28:39;;;;;;;8.00;7.20;;;;;;;;;;10212284;28;20050;-70
2023/08/28 01:33:36;;;;;;;7.57;6.88;;;;;;;;;;10221838;28;20596;-69
2023/08/28 01:38:41;;;;;;;7.65;6.85;;;;;;;;;;10231787;28;20424;-69
2023/08/28 01:43:42;;;;;;;9.00;6.72;;;;;;;;;;10213018;28;20095;-69
2023/08/28 01:48:47;;;;;;;10.30;7.75;;;;;;;;;;10234690;28;20037;-69
2023/08/28 01:53:43;;;;;;;10.10;7.72;;;;;;;;;;10228610;28;20112;-69
2023/08/28 01:58:56;;;;;;;8.13;6.75;;;;;;;;;;10239149;28;20073;-68
2023/08/28 02:03:53;;;;;;;8.15;7.32;;;;;;;;;;10226933;28;20053;-71
2023/08/28 02:08:49;;;;;;;9.50;8.10;;;;;;;;;;10609389;23;20045;-71
2023/08/28 02:13:45;;;;;;;9.20;7.47;;;;;;;;;;10209667;28;20096;-70
2023/08/28 02:18:42;;;;;;;7.78;7.03;;;;;;;;;;10488418;23;20072;-71
2023/08/28 02:23:38;;;;;;;9.13;7.40;;;;;;;;;;10203497;28;20108;-69
2023/08/28 02:28:34;;;;;;;8.35;7.35;;;;;;;;;;10186598;28;20049;-69
2023/08/28 02:33:30;;;;;;;11.05;7.10;;;;;;;;;;10205956;28;20052;-69
2023/08/28 02:38:27;;;;;;;8.10;7.28;;;;;;;;;;10333586;23;20046;-69
2023/08/28 02:43:23;;;;;;;8.20;6.78;;;;;;;;;;10201192;28;20100;-70
2023/08/28 02:48:19;;;;;;;10.27;7.20;;;;;;;;;;10205993;28;20509;-70
2023/08/28 02:53:16;;;;;;;7.90;7.20;;;;;;;;;;10184402;28;20094;-69
2023/08/28 02:58:12;;;;;;;7.78;7.07;;;;;;;;;;10194719;28;20054;-69
2023/08/28 03:03:09;;;;;;;9.05;7.72;;;;;;;;;;10186003;28;20620;-69
2023/08/28 03:13:11;;;;;;;7.88;7.13;;;;;;;;;;10532365;23;20045;-69
2023/08/28 03:18:07;;;;;;;8.15;7.38;;;;;;;;;;10182571;28;20520;-69
2023/08/28 03:23:04;;;;;;;8.07;7.32;;;;;;;;;;10178387;28;20042;-68
2023/08/28 03:28:01;;;;;;;8.20;7.22;;;;;;;;;;10182634;28;20563;-69
2023/08/28 03:32:58;;;;;;;8.05;7.25;;;;;;;;;;10179546;28;20046;-71
2023/08/28 03:38:00;;;;;;;7.82;6.78;;;;;;;;;;10258109;23;20084;-72
2023/08/28 03:42:57;;;;;;;;;;;;;;;;;;10175933;28;20054;-71
2023/08/28 03:47:53;;;;;;;7.38;6.78;;;;;;;;;;10153140;28;19925;-72
2023/08/28 03:52:49;;;;;;;8.20;6.30;;;;;;;;;;10140538;28;20053;-72
2023/08/28 03:57:45;;;;;;;7.68;6.78;;;;;;;;;;10139999;28;20090;-71
2023/08/28 04:02:42;;;;;;;7.53;6.63;;;;;;;;;;10139494;28;20049;-71
2023/08/28 04:07:39;;;;;;;7.65;6.65;;;;;;;;;;10128989;28;20181;-72
2023/08/28 04:12:36;;;;;;;9.05;7.90;;;;;;;;;;10138168;28;20124;-72
2023/08/28 04:17:32;;;;;;;8.85;7.95;;;;;;;;;;10174254;23;20073;-73
2023/08/28 04:22:29;;;;;;;8.88;8.02;;;;;;;;;;10168136;28;20173;-71
2023/08/28 04:27:25;;;;;;;9.50;8.02;;;;;;;;;;10173486;28;20101;-73
2023/08/28 04:32:21;;;;;;;8.88;8.00;;;;;;;;;;10169552;28;20058;-72
2023/08/28 04:37:18;;;;;;;9.63;8.82;;;;;;;;;;10178306;28;20472;-72
2023/08/28 04:42:15;;;;;;;10.40;9.52;;;;;;;;;;10181345;28;20074;-72
2023/08/28 04:47:13;;;;;;;11.65;10.45;;;;;;;;;;10187282;28;20050;-71
2023/08/28 04:52:09;;;;;;;10.40;9.43;;;;;;;;;;10166109;28;20148;-72
2023/08/28 04:57:05;;;;;;;10.18;9.30;;;;;;;;;;10181458;28;20049;-74
2023/08/28 05:02:02;;;;;;;11.20;10.10;;;;;;;;;;10149320;28;20054;-72
2023/08/28 05:06:58;;;;;;;10.93;9.90;;;;;;;;;;10181017;28;20112;-72
2023/08/28 05:11:54;;;;;;;15.77;10.95;;;;;;;;;;10176445;28;20046;-72
2023/08/28 05:16:51;;;;;;;12.27;11.07;;;;;;;;;;10181878;28;20061;-71
2023/08/28 05:21:47;;;;;;;11.60;10.55;;;;;;;;;;10217504;28;20088;-72
2023/08/28 05:32:40;;;;;;;14.63;11.60;;;;;;;;;;8319355;26;20560;-72
2023/08/28 05:37:34;;;;;;;12.70;11.60;;;;;;;;;;10156142;28;20073;-72
2023/08/28 05:42:31;;;;;;;14.57;12.52;;;;;;;;;;10179429;28;20425;-72
2023/08/28 05:47:27;;;;;;;16.63;10.93;;;;;;;;;;10289833;23;20056;-72
2023/08/28 05:52:23;;;;;;;15.30;11.68;;;;;;;;;;10215802;28;20547;-72
2023/08/28 05:57:20;;;;;;;11.30;10.20;;;;;;;;;;10217200;28;20045;-72
2023/08/28 06:02:16;;;;;;;11.27;10.15;;;;;;;;;;10203705;28;20153;-72
2023/08/28 06:07:18;;;;;;;16.45;10.85;;;;;;;;;;10260140;23;21353;-72
2023/08/28 06:12:15;;;;;;;;;;;;;;;;;;10225505;28;21294;-72
2023/08/28 06:17:13;;;;;;;11.68;9.02;;;;;;;;;;10479910;22;19954;-72
2023/08/28 06:22:10;;;;;;;10.32;9.23;;;;;;;;;;10297434;28;20065;-72
2023/08/28 06:32:18;;;;;;;8.55;7.63;;;;;;;;;;10258761;23;20053;-72
2023/08/28 06:37:14;;;;;;;8.35;6.95;;;;;;;;;;10251018;28;20437;-71
2023/08/28 06:42:11;;;;;;;8.95;6.55;;;;;;;;;;10230855;28;20060;-72
2023/08/28 06:47:07;;;;;;;6.90;6.30;;;;;;;;;;10225311;28;20053;-72
2023/08/28 06:52:04;;;;;;;7.70;6.28;;;;;;;;;;10228231;28;20068;-72
2023/08/28 06:57:00;;;;;;;7.47;6.10;;;;;;;;;;10220637;28;20058;-71
2023/08/28 07:01:57;;;;;;;7.75;6.53;;;;;;;;;;10236449;28;20048;-72
2023/08/28 07:06:53;;;;;;;5.75;5.15;;;;;;;;;;10218921;28;20037;-72
2023/08/28 07:11:49;;;;;;;6.55;5.85;;;;;;;;;;10233658;28;20140;-72
2023/08/28 07:16:45;;;;;;;7.32;5.90;;;;;;;;;;10223149;28;20041;-72
2023/08/28 07:21:42;;;;;;;9.85;5.63;;;;;;;;;;10209367;28;20468;-72
2023/08/28 07:26:59;;;;;;;7.50;5.68;;;;;;;;;;10267974;22;20056;-72
2023/08/28 07:31:55;;;;;;;7.40;4.88;;;;;;;;;;10261623;28;20174;-72
2023/08/28 07:42:02;;;;;;;6.22;5.25;;;;;;;;;;10183721;28;20058;-72
2023/08/28 07:46:59;;;;;;;8.55;5.50;;;;;;;;;;10215869;28;20052;-72
2023/08/28 07:51:57;;;;;;;6.38;4.95;;;;;;;;;;10225222;28;20145;-72
2023/08/28 07:56:53;;;;;;;8.80;5.00;;;;;;;;;;10222093;28;20056;-72
2023/08/28 08:01:50;;;;;;;5.88;5.18;;;;;;;;;;10224516;28;20429;-72
2023/08/28 08:06:46;;;;;;;8.68;5.20;;;;;;;;;;10239289;23;20044;-73
2023/08/28 08:11:43;;;;;;;7.28;4.90;;;;;;;;;;10281894;28;20056;-73
2023/08/28 08:16:39;;;;;;;8.50;5.28;;;;;;;;;;10281221;28;20049;-72
2023/08/28 08:21:36;;;;;;;7.25;5.03;;;;;;;;;;10288044;28;20522;-72
2023/08/28 08:26:33;;;;;;;6.57;5.07;;;;;;;;;;10297437;28;20083;-72
2023/08/28 08:31:30;;;;;;;7.03;4.85;;;;;;;;;;10300926;28;20577;-73
2023/08/28 08:41:43;;;;;;;5.55;4.90;;;;;;;;;;10295119;23;20053;-74
2023/08/28 08:52:27;;;;;;;5.88;5.35;;;;;;;;;;10226483;28;20053;-73
2023/08/28 08:57:43;;;;;;;5.18;4.68;;;;;;;;;;10226251;28;20513;-74
2023/08/28 09:02:40;;;;;;;5.82;4.60;;;;;;;;;;10238446;28;20083;-73
2023/08/28 09:07:39;;;;;;;9.57;5.05;;;;;;;;;;10215301;28;20389;-74
2023/08/28 09:12:37;;;;;;;5.38;4.88;;;;;;;;;;10205517;28;20057;-74
2023/08/28 09:17:37;;;;;;;5.32;4.70;;;;;;;;;;10230967;28;20060;-73
2023/08/28 09:22:34;;;;;;;5.70;5.13;;;;;;;;;;10223824;28;20468;-74
2023/08/28 09:27:41;;;;;;;7.55;5.07;;;;;;;;;;10238943;28;20046;-74
2023/08/28 09:32:44;;;;;;;11.52;4.75;;;;;;;;;;10248507;28;20081;-74
2023/08/28 09:37:40;;;;;;;6.28;5.53;;;;;;;;;;10222571;28;20165;-73
2023/08/28 09:42:37;;;;;;;4.72;4.32;;;;;;;;;;10240014;28;20080;-74
2023/08/28 09:47:33;;;;;;;4.93;4.43;;;;;;;;;;10226335;28;20508;-74
2023/08/28 09:52:29;;;;;;;6.38;4.35;;;;;;;;;;10220704;28;20041;-73
2023/08/28 09:57:28;;;;;;;7.22;4.80;;;;;;;;;;10263768;23;20056;-74
2023/08/28 10:02:27;;;;;;;5.82;4.03;;;;;;;;;;10228113;28;20057;-74
2023/08/28 10:07:24;;;;;;;4.72;4.30;;;;;;;;;;10224201;28;20424;-74
2023/08/28 10:12:21;;;;;;;5.88;5.13;;;;;;;;;;10231836;28;20609;-72
2023/08/28 10:17:18;;;;;;;6.45;4.93;;;;;;;;;;10212264;28;20050;-72
2023/08/28 10:22:15;;;;;;;5.30;4.70;;;;;;;;;;10235110;28;20057;-72
2023/08/28 10:27:13;;;;;;;5.72;5.13;;;;;;;;;;10212557;28;20085;-72
2023/08/28 10:32:10;;;;;;;5.60;5.10;;;;;;;;;;10227457;28;20061;-72
2023/08/28 10:37:07;;;;;;;5.22;4.70;;;;;;;;;;10224630;28;20069;-71
2023/08/28 10:42:18;;;;;;;5.60;5.10;;;;;;;;;;10227334;28;20049;-72
2023/08/28 10:47:16;;;;;;;6.50;5.88;;;;;;;;;;10227835;28;20061;-72
2023/08/28 10:52:12;;;;;;;5.32;4.65;;;;;;;;;;10218821;28;20108;-72
2023/08/28 10:57:25;;;;;;;5.80;5.20;;;;;;;;;;10450980;22;20068;-72
2023/08/28 11:02:21;;;;;;;9.18;5.70;;;;;;;;;;10235559;28;20053;-72
2023/08/28 11:13:10;;;;;;;5.50;5.00;;;;;;;;;;10206533;26;20046;-72
2023/08/28 11:18:12;;;;;;;5.80;5.30;;;;;;;;;;10227213;28;20049;-72
2023/08/28 11:23:08;;;;;;;;;;;;;;;;;;10236558;28;20595;-73
2023/08/28 11:28:22;;;;;;;6.20;5.63;;;;;;;;;;10228992;28;19929;-72
2023/08/28 11:33:19;;;;;;;6.10;4.70;;;;;;;;;;10235575;28;20084;-72
2023/08/28 11:38:16;;;;;;;5.50;4.97;;;;;;;;;;10237954;28;20049;-72
2023/08/28 11:43:14;;;;;;;4.95;4.55;;;;;;;;;;10237196;28;20061;-72
2023/08/28 11:48:11;;;;;;;5.75;5.22;;;;;;;;;;10223531;28;20056;-72
2023/08/28 11:53:07;;;;;;;5.82;5.03;;;;;;;;;;10227504;28;20053;-72
2023/08/28 11:58:04;;;;;;;5.60;5.10;;;;;;;;;;10229078;28;20536;-72
2023/08/28 12:03:00;;;;;;;5.80;5.30;;;;;;;;;;10230274;28;20050;-72
2023/08/28 12:08:15;;;;;;;5.43;4.97;;;;;;;;;;10310633;22;20053;-73
2023/08/28 12:13:18;;;;;;;6.97;6.28;;;;;;;;;;10258963;28;20053;-72
2023/08/28 12:18:15;;;;;;;5.70;5.20;;;;;;;;;;10240159;28;20092;-72
2023/08/28 12:23:11;;;;;;;6.22;5.63;;;;;;;;;;10234527;28;20081;-72
2023/08/28 12:28:08;;;;;;;6.25;5.65;;;;;;;;;;10252005;22;20293;-73
2023/08/28 12:33:08;;;;;;;6.93;5.85;;;;;;;;;;10263215;28;20044;-72
2023/08/28 12:38:14;;;;;;;6.13;5.63;;;;;;;;;;10292563;22;20053;-72
2023/08/28 12:43:11;;;;;;;6.03;5.53;;;;;;;;;;10261750;28;20045;-72
2023/08/28 12:53:31;;;;;;;5.78;5.28;;;;;;;;;;10321784;22;20049;-73
2023/08/28 12:58:27;;;;;;;6.15;5.57;;;;;;;;;;10278011;22;20085;-72
2023/08/28 13:03:24;;;;;;;5.85;5.32;;;;;;;;;;10210169;28;20065;-73
2023/08/28 13:13:51;;;;;;;5.78;5.28;;;;;;;;;;5427159;22;20049;-72
2023/08/28 13:18:47;;;;;;;6.03;5.50;;;;;;;;;;10252386;28;20063;-72
2023/08/28 13:23:43;;;;;;;5.85;5.30;;;;;;;;;;10244973;28;20531;-72
2023/08/28 13:29:21;;;;;;;6.13;5.53;;;;;;;;;;10403076;22;20505;-73
2023/08/28 13:34:41;;;;;;;9.73;5.90;;;;;;;;;;10152885;28;20041;-72
2023/08/28 13:39:38;;;;;;;5.55;5.05;;;;;;;;;;10214370;28;20053;-73
2023/08/28 13:44:35;;;;;;;5.97;5.50;;;;;;;;;;10221100;28;20461;-73
2023/08/28 13:49:32;;;;;;;5.90;5.40;;;;;;;;;;10258864;22;20069;-73
2023/08/28 13:54:29;;;;;;;5.95;5.40;;;;;;;;;;10229882;28;20097;-73
2023/08/28 13:59:25;;;;;;;6.05;5.55;;;;;;;;;;10506042;22;20072;-73
2023/08/28 14:04:22;;;;;;;6.28;5.78;;;;;;;;;;10231634;28;20042;-73
2023/08/28 14:09:18;;;;;;;6.05;5.35;;;;;;;;;;10236599;28;20045;-73
2023/08/28 14:14:14;;;;;;;6.40;5.90;;;;;;;;;;10227286;28;20053;-73
2023/08/28 14:19:11;;;;;;;6.82;5.65;;;;;;;;;;10230589;28;20050;-72
2023/08/28 14:24:08;;;;;;;6.20;5.65;;;;;;;;;;10229238;28;20049;-73
2023/08/28 14:29:04;;;;;;;6.20;5.60;;;;;;;;;;10240729;28;20076;-73
2023/08/28 14:34:01;;;;;;;6.10;5.60;;;;;;;;;;10224770;28;20048;-73
2023/08/28 14:38:57;;;;;;;6.20;5.50;;;;;;;;;;10242957;28;20053;-72
2023/08/28 14:43:55;;;;;;;6.07;5.43;;;;;;;;;;10234415;28;20750;-73
2023/08/28 14:49:02;;;;;;;6.03;5.43;;;;;;;;;;10232596;22;20053;-73
2023/08/28 14:53:59;;;;;;;6.20;5.55;;;;;;;;;;10261711;28;20046;-73
2023/08/28 14:58:56;;;;;;;5.97;5.47;;;;;;;;;;10255015;28;20059;-73
2023/08/28 15:03:52;;;;;;;7.25;6.22;;;;;;;;;;10264615;28;20052;-72
2023/08/28 15:08:49;;;;;;;6.75;5.82;;;;;;;;;;10333767;22;20104;-72
2023/08/28 15:13:45;;;;;;;6.25;5.65;;;;;;;;;;10194450;28;20057;-72
2023/08/28 15:23:53;;;;;;;6.00;5.20;;;;;;;;;;10419766;22;20050;-72
2023/08/28 15:28:58;;;;;;;6.00;5.43;;;;;;;;;;10612364;22;20083;-72
2023/08/28 15:33:54;;;;;;;6.55;5.97;;;;;;;;;;10232086;28;20060;-73
2023/08/28 15:38:51;;;;;;;6.50;5.95;;;;;;;;;;10235676;28;20096;-72
2023/08/28 15:43:48;;;;;;;6.70;5.47;;;;;;;;;;10233789;28;20080;-72
2023/08/28 15:53:56;;;;;;;6.72;5.50;;;;;;;;;;11574227;22;20049;-72
2023/08/28 15:58:52;;;;;;;5.70;5.20;;;;;;;;;;10262400;28;20082;-72
2023/08/28 16:04:07;;;;;;;5.47;4.97;;;;;;;;;;10247820;28;20152;-71
2023/08/28 16:09:05;;;;;;;7.45;6.75;;;;;;;;;;10696628;22;20064;-71
2023/08/28 16:14:01;;;;;;;6.85;5.60;;;;;;;;;;10225239;28;20486;-72
2023/08/28 16:19:26;;;;;;;6.40;5.82;;;;;;;;;;10327976;22;20607;-72
2023/08/28 16:24:23;;;;;;;5.80;5.30;;;;;;;;;;10251322;28;20052;-72
2023/08/28 16:29:19;;;;;;;6.68;5.95;;;;;;;;;;10249969;28;20044;-72
2023/08/28 16:34:15;;;;;;;7.45;6.75;;;;;;;;;;10256086;28;20049;-72
2023/08/28 16:39:12;;;;;;;6.35;5.57;;;;;;;;;;10254351;28;20045;-72
2023/08/28 16:44:08;;;;;;;5.85;5.35;;;;;;;;;;10254173;28;20831;-72
2023/08/28 16:49:05;;;;;;;7.15;5.70;;;;;;;;;;10259321;28;20495;-72
2023/08/28 16:54:02;;;;;;;7.90;7.10;;;;;;;;;;10255037;28;20163;-73
2023/08/28 16:58:58;;;;;;;11.80;10.32;;;;;;;;;;10259666;28;20045;-74
2023/08/28 17:03:54;;;;;;;6.85;6.25;;;;;;;;;;10266557;28;20057;-74
2023/08/28 17:08:51;;;;;;;5.95;5.45;;;;;;;;;;10354297;22;20509;-74
2023/08/28 17:13:47;;;;;;;6.07;5.60;;;;;;;;;;10222469;28;20049;-74
2023/08/28 17:41:24;;;;;;;5.82;5.20;;;;;;;;;;10208034;23;20045;-74
2023/08/28 17:46:59;;;;;;;7.53;4.65;;;;;;;;;;10160619;28;20123;-74
2023/08/28 17:52:37;;;;;;;6.77;6.10;;;;;;;;;;10080973;28;20044;-74
2023/08/28 17:57:39;;;;;;;6.50;5.87;;;;;;;;;;10086381;28;20058;-74
2023/08/28 18:08:31;;;;;;;4.80;4.40;;;;;;;;;;10172299;28;20029;-74
2023/08/28 18:20:19;;;;;;;6.80;5.43;;;;;;;;;;10065054;28;20050;-74
2023/08/28 18:25:54;;;;;;;6.45;4.82;;;;;;;;;;10195256;28;20054;-74
2023/08/28 18:31:45;;;;;;;;;;;;;;;;;;;;;
2023/08/28 18:37:04;;;;;;;6.95;6.25;;;;;;;;;;10076718;28;20055;-73
2023/08/28 18:42:01;;;;;;;7.45;6.22;;;;;;;;;;10163909;28;20070;-73
2023/08/28 18:47:00;;;;;;;9.20;7.00;;;;;;;;;;10160328;28;20049;-73
2023/08/28 18:51:56;;;;;;;8.35;7.43;;;;;;;;;;10171515;28;20390;-72
2023/08/28 18:56:53;;;;;;;6.30;5.70;;;;;;;;;;10176058;28;20042;-73
2023/08/28 19:01:49;;;;;;;7.05;6.40;;;;;;;;;;10154270;28;20055;-73
2023/08/28 19:06:46;;;;;;;8.80;7.70;;;;;;;;;;10176725;28;20104;-73
2023/08/28 19:11:42;;;;;;;7.20;5.93;;;;;;;;;;10190562;28;20049;-73
2023/08/28 19:16:50;;;;;;;7.75;5.28;;;;;;;;;;10342387;22;20032;-73
2023/08/28 19:21:46;;;;;;;6.97;6.38;;;;;;;;;;10182264;28;20046;-73
2023/08/28 19:27:19;;;;;;;;;;;;;;;;;;;;;
2023/08/28 19:32:42;;;;;;;7.10;6.40;;;;;;;;;;10062506;28;20055;-73
2023/08/28 19:37:39;;;;;;;8.02;6.20;;;;;;;;;;10075570;28;20138;-71
2023/08/28 19:42:36;;;;;;;7.20;6.50;;;;;;;;;;10103547;28;20071;-71
2023/08/28 19:47:33;;;;;;;8.25;6.65;;;;;;;;;;10099586;28;20047;-69
2023/08/28 19:52:29;;;;;;;6.22;5.63;;;;;;;;;;10101905;28;20050;-69
2023/08/28 19:57:26;;;;;;;6.18;5.57;;;;;;;;;;10412201;22;20069;-70
2023/08/28 20:02:22;;;;;;;7.05;6.40;;;;;;;;;;10259561;28;20499;-69
2023/08/28 20:07:18;;;;;;;9.63;6.07;;;;;;;;;;10250442;28;20074;-69
2023/08/28 20:12:15;;;;;;;6.50;5.90;;;;;;;;;;10224838;28;20057;-68
2023/08/28 20:17:11;;;;;;;6.18;5.43;;;;;;;;;;10210218;28;20424;-69
2023/08/28 20:22:07;;;;;;;6.45;5.85;;;;;;;;;;10208532;28;20229;-69
2023/08/28 20:27:04;;;;;;;6.32;5.82;;;;;;;;;;10224879;28;20550;-69
2023/08/28 20:32:00;;;;;;;6.45;5.72;;;;;;;;;;10214888;28;20049;-69
2023/08/28 20:42:09;;;;;;;8.03;6.13;;;;;;;;;;9978672;26;20422;-69
2023/08/28 20:47:05;;;;;;;8.48;7.53;;;;;;;;;;10192837;28;20073;-70
2023/08/28 20:52:02;;;;;;;9.77;8.45;;;;;;;;;;10190788;28;20712;-70
2023/08/28 20:56:58;;;;;;;12.25;10.60;;;;;;;;;;10190208;28;20532;-70
2023/08/28 21:01:55;;;;;;;19.98;13.57;;;;;;;;;;10184239;28;20065;-71
2023/08/28 21:06:51;;;;;;;21.92;14.95;;;;;;;;;;10186347;28;20057;-70
2023/08/28 21:11:47;;;;;;;10.02;9.02;;;;;;;;;;10194287;28;20082;-69
2023/08/28 21:16:44;;;;;;;10.57;9.02;;;;;;;;;;10191377;28;20045;-69
2023/08/28 21:21:40;;;;;;;6.68;6.03;;;;;;;;;;10185806;28;20053;-69
2023/08/28 21:26:36;;;;;;;6.80;6.00;;;;;;;;;;10185992;28;20109;-70
2023/08/28 21:31:33;;;;;;;6.30;5.60;;;;;;;;;;10193750;28;20046;-70
2023/08/28 21:36:29;;;;;;;6.85;6.07;;;;;;;;;;10199370;22;20039;-70
2023/08/28 21:41:25;;;;;;;9.65;6.15;;;;;;;;;;10262731;28;20547;-69
2023/08/28 21:46:22;;;;;;;5.90;5.30;;;;;;;;;;10259150;28;20057;-69
2023/08/28 21:51:18;;;;;;;5.82;5.32;;;;;;;;;;10250076;28;20468;-69
2023/08/28 22:01:20;;;;;;;5.45;4.95;;;;;;;;;;9447325;26;20424;-69
2023/08/28 22:06:17;;;;;;;8.98;5.38;;;;;;;;;;10226946;28;20049;-69
2023/08/28 22:11:14;;;;;;;5.70;5.18;;;;;;;;;;10230956;28;20088;-69
2023/08/28 22:16:10;;;;;;;6.20;5.70;;;;;;;;;;10219880;28;20053;-68
2023/08/28 22:21:15;;;;;;;8.25;5.72;;;;;;;;;;10215490;28;20145;-69
2023/08/28 22:26:14;;;;;;;7.13;5.47;;;;;;;;;;10222404;28;20465;-69
2023/08/28 22:31:11;;;;;;;7.13;5.78;;;;;;;;;;10215398;28;20060;-69
2023/08/28 22:36:07;;;;;;;5.93;5.43;;;;;;;;;;10220335;28;20045;-68
2023/08/28 22:41:03;;;;;;;6.72;5.82;;;;;;;;;;10221294;28;20448;-68
2023/08/28 22:46:01;;;;;;;7.05;6.35;;;;;;;;;;10229147;28;20107;-69
2023/08/28 22:50:57;;;;;;;8.77;5.60;;;;;;;;;;10221772;28;20061;-69
2023/08/28 22:55:53;;;;;;;14.07;6.00;;;;;;;;;;10214985;28;20050;-68
2023/08/28 23:00:50;;;;;;;6.22;5.50;;;;;;;;;;10227943;28;20476;-68
2023/08/28 23:05:47;;;;;;;8.00;5.72;;;;;;;;;;10220053;28;20062;-68
2023/08/28 23:10:43;;;;;;;6.45;5.75;;;;;;;;;;10220500;23;20060;-70
2023/08/28 23:15:41;;;;;;;8.02;5.93;;;;;;;;;;10225522;28;20068;-70
2023/08/28 23:20:38;;;;;;;6.57;5.97;;;;;;;;;;10232392;28;20049;-70
2023/08/28 23:25:35;;;;;;;6.40;5.80;;;;;;;;;;10219475;28;20058;-70
2023/08/28 23:30:31;;;;;;;6.35;5.60;;;;;;;;;;10227619;28;20045;-69
2023/08/28 23:35:27;;;;;;;7.05;5.88;;;;;;;;;;10224882;28;20072;-69
2023/08/28 23:40:24;;;;;;;6.82;6.00;;;;;;;;;;10229406;28;20512;-69
2023/08/28 23:45:20;;;;;;;6.55;5.78;;;;;;;;;;10230278;28;20536;-69
2023/08/28 23:50:17;;;;;;;5.68;5.18;;;;;;;;;;10379552;22;20136;-69
2023/08/28 23:55:13;;;;;;;6.07;5.47;;;;;;;;;;10229562;28;20049;-69
